sensor_id;sensor_type;location;lat;lon;timestamp;temperature;humidity
68139;DHT22;54940;50.842;4.410;2023-06-26T00:02:11;24.20;95.20
68139;DHT22;54940;50.842;4.410;2023-06-26T00:04:43;24.20;95.20
68139;DHT22;54940;50.842;4.410;2023-06-26T00:07:09;24.10;95.60
68139;DHT22;54940;50.842;4.410;2023-06-26T00:09:34;24.00;95.70
68139;DHT22;54940;50.842;4.410;2023-06-26T00:12:03;23.90;95.90
68139;DHT22;54940;50.842;4.410;2023-06-26T00:14:29;23.90;96.00
68139;DHT22;54940;50.842;4.410;2023-06-26T00:16:54;23.80;96.10
68139;DHT22;54940;50.842;4.410;2023-06-26T00:19:22;23.70;96.40
68139;DHT22;54940;50.842;4.410;2023-06-26T00:21:48;23.60;96.10
68139;DHT22;54940;50.842;4.410;2023-06-26T00:24:14;23.60;96.40
68139;DHT22;54940;50.842;4.410;2023-06-26T00:26:40;23.50;96.20
68139;DHT22;54940;50.842;4.410;2023-06-26T00:29:06;23.60;95.90
68139;DHT22;54940;50.842;4.410;2023-06-26T00:31:34;23.60;95.90
68139;DHT22;54940;50.842;4.410;2023-06-26T00:34:01;23.60;95.90
68139;DHT22;54940;50.842;4.410;2023-06-26T00:36:27;23.60;96.00
68139;DHT22;54940;50.842;4.410;2023-06-26T00:38:53;23.40;94.90
68139;DHT22;54940;50.842;4.410;2023-06-26T00:41:19;23.30;95.10
68139;DHT22;54940;50.842;4.410;2023-06-26T00:43:45;23.30;95.20
68139;DHT22;54940;50.842;4.410;2023-06-26T00:46:13;23.30;95.40
68139;DHT22;54940;50.842;4.410;2023-06-26T00:48:40;23.10;96.00
68139;DHT22;54940;50.842;4.410;2023-06-26T00:51:07;23.10;95.70
68139;DHT22;54940;50.842;4.410;2023-06-26T00:53:33;23.00;95.90
68139;DHT22;54940;50.842;4.410;2023-06-26T00:56:02;22.90;95.50
68139;DHT22;54940;50.842;4.410;2023-06-26T00:58:28;22.70;95.60
68139;DHT22;54940;50.842;4.410;2023-06-26T01:00:54;22.60;96.00
68139;DHT22;54940;50.842;4.410;2023-06-26T01:03:22;22.40;95.80
68139;DHT22;54940;50.842;4.410;2023-06-26T01:05:48;22.40;95.70
68139;DHT22;54940;50.842;4.410;2023-06-26T01:08:16;22.40;95.70
68139;DHT22;54940;50.842;4.410;2023-06-26T01:10:45;22.30;95.80
68139;DHT22;54940;50.842;4.410;2023-06-26T01:13:12;22.20;95.60
68139;DHT22;54940;50.842;4.410;2023-06-26T01:15:39;22.30;95.80
68139;DHT22;54940;50.842;4.410;2023-06-26T01:18:06;22.20;96.10
68139;DHT22;54940;50.842;4.410;2023-06-26T01:20:39;22.30;96.10
68139;DHT22;54940;50.842;4.410;2023-06-26T01:23:17;22.10;95.90
68139;DHT22;54940;50.842;4.410;2023-06-26T01:28:17;22.10;96.50
68139;DHT22;54940;50.842;4.410;2023-06-26T01:30:44;22.00;96.40
68139;DHT22;54940;50.842;4.410;2023-06-26T01:33:12;22.10;97.10
68139;DHT22;54940;50.842;4.410;2023-06-26T01:35:38;22.00;97.30
68139;DHT22;54940;50.842;4.410;2023-06-26T01:38:18;22.00;97.30
68139;DHT22;54940;50.842;4.410;2023-06-26T01:40:44;22.10;97.30
68139;DHT22;54940;50.842;4.410;2023-06-26T01:46:22;22.00;97.60
68139;DHT22;54940;50.842;4.410;2023-06-26T01:49:09;21.90;97.90
68139;DHT22;54940;50.842;4.410;2023-06-26T01:51:42;21.70;98.30
68139;DHT22;54940;50.842;4.410;2023-06-26T01:54:14;21.70;98.50
68139;DHT22;54940;50.842;4.410;2023-06-26T01:56:43;21.60;98.90
68139;DHT22;54940;50.842;4.410;2023-06-26T01:59:12;21.60;99.00
68139;DHT22;54940;50.842;4.410;2023-06-26T02:01:39;21.60;99.00
68139;DHT22;54940;50.842;4.410;2023-06-26T02:04:05;21.50;99.20
68139;DHT22;54940;50.842;4.410;2023-06-26T02:06:31;21.50;99.40
68139;DHT22;54940;50.842;4.410;2023-06-26T02:08:57;21.50;99.80
68139;DHT22;54940;50.842;4.410;2023-06-26T02:11:23;21.40;99.70
68139;DHT22;54940;50.842;4.410;2023-06-26T02:13:48;21.40;99.90
68139;DHT22;54940;50.842;4.410;2023-06-26T02:16:14;21.10;99.90
68139;DHT22;54940;50.842;4.410;2023-06-26T02:18:40;21.10;99.90
68139;DHT22;54940;50.842;4.410;2023-06-26T02:21:06;21.20;99.90
68139;DHT22;54940;50.842;4.410;2023-06-26T02:23:31;21.10;99.90
68139;DHT22;54940;50.842;4.410;2023-06-26T02:26:00;21.20;99.90
68139;DHT22;54940;50.842;4.410;2023-06-26T02:28:25;21.10;99.90
68139;DHT22;54940;50.842;4.410;2023-06-26T02:30:51;21.00;99.90
68139;DHT22;54940;50.842;4.410;2023-06-26T02:33:17;21.00;99.90
68139;DHT22;54940;50.842;4.410;2023-06-26T02:35:42;21.00;99.90
68139;DHT22;54940;50.842;4.410;2023-06-26T02:38:08;21.10;99.90
68139;DHT22;54940;50.842;4.410;2023-06-26T02:40:33;21.10;99.90
68139;DHT22;54940;50.842;4.410;2023-06-26T02:43:01;21.20;99.90
68139;DHT22;54940;50.842;4.410;2023-06-26T02:45:27;21.00;99.90
68139;DHT22;54940;50.842;4.410;2023-06-26T02:47:53;21.10;99.90
68139;DHT22;54940;50.842;4.410;2023-06-26T02:50:18;21.10;99.90
68139;DHT22;54940;50.842;4.410;2023-06-26T02:52:44;21.00;99.90
68139;DHT22;54940;50.842;4.410;2023-06-26T02:55:10;20.90;99.90
68139;DHT22;54940;50.842;4.410;2023-06-26T02:57:35;20.90;99.90
68139;DHT22;54940;50.842;4.410;2023-06-26T03:00:01;20.90;99.90
68139;DHT22;54940;50.842;4.410;2023-06-26T03:02:26;21.00;99.90
68139;DHT22;54940;50.842;4.410;2023-06-26T03:04:52;20.90;99.90
68139;DHT22;54940;50.842;4.410;2023-06-26T03:07:18;20.90;99.90
68139;DHT22;54940;50.842;4.410;2023-06-26T03:09:43;20.90;99.90
68139;DHT22;54940;50.842;4.410;2023-06-26T03:12:09;20.90;99.90
68139;DHT22;54940;50.842;4.410;2023-06-26T03:14:35;20.90;99.90
68139;DHT22;54940;50.842;4.410;2023-06-26T03:17:00;20.80;99.90
68139;DHT22;54940;50.842;4.410;2023-06-26T03:19:29;20.80;99.90
68139;DHT22;54940;50.842;4.410;2023-06-26T03:21:54;20.70;99.90
68139;DHT22;54940;50.842;4.410;2023-06-26T03:24:22;20.70;99.90
68139;DHT22;54940;50.842;4.410;2023-06-26T03:26:48;20.60;99.90
68139;DHT22;54940;50.842;4.410;2023-06-26T03:29:14;20.50;99.90
68139;DHT22;54940;50.842;4.410;2023-06-26T03:31:39;20.40;99.90
68139;DHT22;54940;50.842;4.410;2023-06-26T03:34:07;20.40;99.90
68139;DHT22;54940;50.842;4.410;2023-06-26T03:36:33;20.30;99.90
68139;DHT22;54940;50.842;4.410;2023-06-26T03:38:58;20.20;99.90
68139;DHT22;54940;50.842;4.410;2023-06-26T03:41:25;20.30;99.90
68139;DHT22;54940;50.842;4.410;2023-06-26T03:43:53;20.30;99.90
68139;DHT22;54940;50.842;4.410;2023-06-26T03:46:20;20.30;99.90
68139;DHT22;54940;50.842;4.410;2023-06-26T03:48:48;20.20;99.90
68139;DHT22;54940;50.842;4.410;2023-06-26T03:51:14;20.20;99.90
68139;DHT22;54940;50.842;4.410;2023-06-26T03:53:40;20.20;99.90
68139;DHT22;54940;50.842;4.410;2023-06-26T03:56:06;20.20;99.90
68139;DHT22;54940;50.842;4.410;2023-06-26T03:58:31;20.10;99.90
68139;DHT22;54940;50.842;4.410;2023-06-26T04:00:57;19.90;99.90
68139;DHT22;54940;50.842;4.410;2023-06-26T04:03:23;20.00;99.90
68139;DHT22;54940;50.842;4.410;2023-06-26T04:05:49;20.00;99.90
68139;DHT22;54940;50.842;4.410;2023-06-26T04:08:14;20.00;99.90
68139;DHT22;54940;50.842;4.410;2023-06-26T04:10:40;19.90;99.90
68139;DHT22;54940;50.842;4.410;2023-06-26T04:13:06;20.00;99.90
68139;DHT22;54940;50.842;4.410;2023-06-26T04:15:31;19.90;99.90
68139;DHT22;54940;50.842;4.410;2023-06-26T04:17:57;19.90;99.90
68139;DHT22;54940;50.842;4.410;2023-06-26T04:20:23;19.90;99.90
68139;DHT22;54940;50.842;4.410;2023-06-26T04:22:48;19.90;99.90
68139;DHT22;54940;50.842;4.410;2023-06-26T04:25:14;20.00;99.90
68139;DHT22;54940;50.842;4.410;2023-06-26T04:27:40;20.00;99.90
68139;DHT22;54940;50.842;4.410;2023-06-26T04:30:06;20.00;99.90
68139;DHT22;54940;50.842;4.410;2023-06-26T04:32:32;19.90;99.90
68139;DHT22;54940;50.842;4.410;2023-06-26T04:34:58;20.20;99.90
68139;DHT22;54940;50.842;4.410;2023-06-26T04:37:23;20.70;99.90
68139;DHT22;54940;50.842;4.410;2023-06-26T04:39:50;21.00;99.90
68139;DHT22;54940;50.842;4.410;2023-06-26T04:42:15;21.40;99.90
68139;DHT22;54940;50.842;4.410;2023-06-26T04:44:41;21.80;99.90
68139;DHT22;54940;50.842;4.410;2023-06-26T04:47:09;22.50;99.90
68139;DHT22;54940;50.842;4.410;2023-06-26T04:49:35;22.50;99.90
68139;DHT22;54940;50.842;4.410;2023-06-26T04:52:00;22.40;99.90
68139;DHT22;54940;50.842;4.410;2023-06-26T04:54:27;22.20;99.90
68139;DHT22;54940;50.842;4.410;2023-06-26T04:56:53;21.90;99.90
68139;DHT22;54940;50.842;4.410;2023-06-26T04:59:19;21.80;99.90
68139;DHT22;54940;50.842;4.410;2023-06-26T05:01:44;22.00;99.90
68139;DHT22;54940;50.842;4.410;2023-06-26T05:04:16;22.60;99.90
68139;DHT22;54940;50.842;4.410;2023-06-26T05:06:44;23.30;99.90
68139;DHT22;54940;50.842;4.410;2023-06-26T05:09:10;23.90;99.90
68139;DHT22;54940;50.842;4.410;2023-06-26T05:11:36;24.30;99.90
68139;DHT22;54940;50.842;4.410;2023-06-26T05:14:04;24.70;99.90
68139;DHT22;54940;50.842;4.410;2023-06-26T05:16:33;24.50;99.90
68139;DHT22;54940;50.842;4.410;2023-06-26T05:19:01;24.80;99.90
68139;DHT22;54940;50.842;4.410;2023-06-26T05:21:27;25.30;99.90
68139;DHT22;54940;50.842;4.410;2023-06-26T05:23:56;25.50;99.90
68139;DHT22;54940;50.842;4.410;2023-06-26T05:26:24;25.70;99.90
68139;DHT22;54940;50.842;4.410;2023-06-26T05:28:53;26.00;99.90
68139;DHT22;54940;50.842;4.410;2023-06-26T05:31:19;26.30;99.10
68139;DHT22;54940;50.842;4.410;2023-06-26T05:33:45;26.60;97.70
68139;DHT22;54940;50.842;4.410;2023-06-26T05:36:14;26.30;98.60
68139;DHT22;54940;50.842;4.410;2023-06-26T05:38:41;26.00;98.50
68139;DHT22;54940;50.842;4.410;2023-06-26T05:41:07;25.80;99.40
68139;DHT22;54940;50.842;4.410;2023-06-26T05:43:33;26.30;98.30
68139;DHT22;54940;50.842;4.410;2023-06-26T05:45:59;26.90;97.40
68139;DHT22;54940;50.842;4.410;2023-06-26T05:48:25;26.80;97.20
68139;DHT22;54940;50.842;4.410;2023-06-26T05:50:51;26.50;96.50
68139;DHT22;54940;50.842;4.410;2023-06-26T05:53:16;26.70;96.30
68139;DHT22;54940;50.842;4.410;2023-06-26T05:55:42;26.80;95.60
68139;DHT22;54940;50.842;4.410;2023-06-26T05:58:10;26.50;96.10
68139;DHT22;54940;50.842;4.410;2023-06-26T06:00:40;26.60;95.60
68139;DHT22;54940;50.842;4.410;2023-06-26T06:03:09;26.60;96.00
68139;DHT22;54940;50.842;4.410;2023-06-26T06:05:37;26.50;95.40
68139;DHT22;54940;50.842;4.410;2023-06-26T06:08:05;26.50;95.30
68139;DHT22;54940;50.842;4.410;2023-06-26T06:10:31;26.50;96.20
68139;DHT22;54940;50.842;4.410;2023-06-26T06:12:56;27.00;96.40
68139;DHT22;54940;50.842;4.410;2023-06-26T06:15:22;27.90;94.00
68139;DHT22;54940;50.842;4.410;2023-06-26T06:17:48;27.90;93.40
68139;DHT22;54940;50.842;4.410;2023-06-26T06:20:13;28.30;95.10
68139;DHT22;54940;50.842;4.410;2023-06-26T06:22:39;27.90;93.80
68139;DHT22;54940;50.842;4.410;2023-06-26T06:25:05;28.00;94.00
68139;DHT22;54940;50.842;4.410;2023-06-26T06:27:31;28.40;94.20
68139;DHT22;54940;50.842;4.410;2023-06-26T06:29:59;28.60;92.00
68139;DHT22;54940;50.842;4.410;2023-06-26T06:32:24;28.10;92.10
68139;DHT22;54940;50.842;4.410;2023-06-26T06:34:50;28.10;94.50
68139;DHT22;54940;50.842;4.410;2023-06-26T06:37:16;28.20;93.50
68139;DHT22;54940;50.842;4.410;2023-06-26T06:39:41;28.00;92.30
68139;DHT22;54940;50.842;4.410;2023-06-26T06:42:07;28.10;93.50
68139;DHT22;54940;50.842;4.410;2023-06-26T06:44:35;28.20;93.30
68139;DHT22;54940;50.842;4.410;2023-06-26T06:47:01;28.10;92.90
68139;DHT22;54940;50.842;4.410;2023-06-26T06:49:26;28.50;93.00
68139;DHT22;54940;50.842;4.410;2023-06-26T06:51:52;28.50;92.40
68139;DHT22;54940;50.842;4.410;2023-06-26T06:54:18;28.40;92.10
68139;DHT22;54940;50.842;4.410;2023-06-26T06:56:45;28.60;92.30
68139;DHT22;54940;50.842;4.410;2023-06-26T06:59:10;28.40;92.50
68139;DHT22;54940;50.842;4.410;2023-06-26T07:01:36;27.90;91.90
68139;DHT22;54940;50.842;4.410;2023-06-26T07:04:02;27.50;92.60
68139;DHT22;54940;50.842;4.410;2023-06-26T07:06:29;27.40;92.00
68139;DHT22;54940;50.842;4.410;2023-06-26T07:08:55;27.40;92.80
68139;DHT22;54940;50.842;4.410;2023-06-26T07:11:20;27.20;93.00
68139;DHT22;54940;50.842;4.410;2023-06-26T07:13:49;27.00;92.40
68139;DHT22;54940;50.842;4.410;2023-06-26T07:16:14;27.10;94.20
68139;DHT22;54940;50.842;4.410;2023-06-26T07:18:40;27.10;93.10
68139;DHT22;54940;50.842;4.410;2023-06-26T07:21:06;26.80;91.90
68139;DHT22;54940;50.842;4.410;2023-06-26T07:23:31;26.40;93.10
68139;DHT22;54940;50.842;4.410;2023-06-26T07:25:57;26.40;93.40
68139;DHT22;54940;50.842;4.410;2023-06-26T07:28:23;27.00;93.50
68139;DHT22;54940;50.842;4.410;2023-06-26T07:30:49;27.30;92.40
68139;DHT22;54940;50.842;4.410;2023-06-26T07:33:14;27.30;93.40
68139;DHT22;54940;50.842;4.410;2023-06-26T07:35:40;27.70;92.60
68139;DHT22;54940;50.842;4.410;2023-06-26T07:38:05;28.00;92.30
68139;DHT22;54940;50.842;4.410;2023-06-26T07:40:31;27.80;91.50
68139;DHT22;54940;50.842;4.410;2023-06-26T07:42:57;27.60;91.40
68139;DHT22;54940;50.842;4.410;2023-06-26T07:45:23;27.70;92.60
68139;DHT22;54940;50.842;4.410;2023-06-26T07:47:49;27.30;91.40
68139;DHT22;54940;50.842;4.410;2023-06-26T07:50:15;27.30;91.50
68139;DHT22;54940;50.842;4.410;2023-06-26T07:52:47;27.20;92.80
68139;DHT22;54940;50.842;4.410;2023-06-26T07:55:12;27.80;92.60
68139;DHT22;54940;50.842;4.410;2023-06-26T07:57:38;27.80;92.60
68139;DHT22;54940;50.842;4.410;2023-06-26T08:00:04;28.00;91.70
68139;DHT22;54940;50.842;4.410;2023-06-26T08:02:32;28.30;93.60
68139;DHT22;54940;50.842;4.410;2023-06-26T08:04:57;28.60;91.90
68139;DHT22;54940;50.842;4.410;2023-06-26T08:07:23;28.80;90.10
68139;DHT22;54940;50.842;4.410;2023-06-26T08:09:49;28.40;90.30
68139;DHT22;54940;50.842;4.410;2023-06-26T08:12:14;28.40;92.40
68139;DHT22;54940;50.842;4.410;2023-06-26T08:14:40;28.50;91.40
68139;DHT22;54940;50.842;4.410;2023-06-26T08:17:05;28.30;89.30
68139;DHT22;54940;50.842;4.410;2023-06-26T08:19:31;28.20;91.50
68139;DHT22;54940;50.842;4.410;2023-06-26T08:21:57;28.60;92.00
68139;DHT22;54940;50.842;4.410;2023-06-26T08:24:22;28.80;92.30
68139;DHT22;54940;50.842;4.410;2023-06-26T08:26:48;28.60;90.50
68139;DHT22;54940;50.842;4.410;2023-06-26T08:29:14;28.40;91.60
68139;DHT22;54940;50.842;4.410;2023-06-26T08:31:41;28.20;90.30
68139;DHT22;54940;50.842;4.410;2023-06-26T08:34:08;28.00;91.20
68139;DHT22;54940;50.842;4.410;2023-06-26T08:36:33;27.70;91.10
68139;DHT22;54940;50.842;4.410;2023-06-26T08:38:59;27.60;91.40
68139;DHT22;54940;50.842;4.410;2023-06-26T08:41:25;27.60;91.10
68139;DHT22;54940;50.842;4.410;2023-06-26T08:43:51;27.60;92.00
68139;DHT22;54940;50.842;4.410;2023-06-26T08:46:18;28.00;91.40
68139;DHT22;54940;50.842;4.410;2023-06-26T08:48:55;28.00;90.30
68139;DHT22;54940;50.842;4.410;2023-06-26T08:51:24;28.40;90.30
68139;DHT22;54940;50.842;4.410;2023-06-26T08:54:07;28.20;90.70
68139;DHT22;54940;50.842;4.410;2023-06-26T08:56:39;27.90;90.00
68139;DHT22;54940;50.842;4.410;2023-06-26T08:59:07;27.50;91.20
68139;DHT22;54940;50.842;4.410;2023-06-26T09:01:37;27.60;90.30
68139;DHT22;54940;50.842;4.410;2023-06-26T09:04:03;27.90;90.10
68139;DHT22;54940;50.842;4.410;2023-06-26T09:06:29;27.80;88.20
68139;DHT22;54940;50.842;4.410;2023-06-26T09:08:55;27.30;90.40
68139;DHT22;54940;50.842;4.410;2023-06-26T09:11:21;27.20;89.80
68139;DHT22;54940;50.842;4.410;2023-06-26T09:13:46;27.40;90.30
68139;DHT22;54940;50.842;4.410;2023-06-26T09:16:13;27.90;89.10
68139;DHT22;54940;50.842;4.410;2023-06-26T09:18:40;28.20;90.30
68139;DHT22;54940;50.842;4.410;2023-06-26T09:21:10;28.10;87.90
68139;DHT22;54940;50.842;4.410;2023-06-26T09:23:36;28.10;90.60
68139;DHT22;54940;50.842;4.410;2023-06-26T09:26:03;28.40;90.10
68139;DHT22;54940;50.842;4.410;2023-06-26T09:28:30;28.70;90.50
68139;DHT22;54940;50.842;4.410;2023-06-26T09:31:01;29.10;89.10
68139;DHT22;54940;50.842;4.410;2023-06-26T09:33:27;28.80;86.50
68139;DHT22;54940;50.842;4.410;2023-06-26T09:35:53;28.60;85.90
68139;DHT22;54940;50.842;4.410;2023-06-26T09:38:19;28.50;85.30
68139;DHT22;54940;50.842;4.410;2023-06-26T09:40:46;28.80;88.30
68139;DHT22;54940;50.842;4.410;2023-06-26T09:43:14;28.60;84.30
68139;DHT22;54940;50.842;4.410;2023-06-26T09:45:40;28.90;83.50
68139;DHT22;54940;50.842;4.410;2023-06-26T09:48:08;29.20;83.00
68139;DHT22;54940;50.842;4.410;2023-06-26T09:50:41;28.90;84.20
68139;DHT22;54940;50.842;4.410;2023-06-26T09:53:13;28.90;80.60
68139;DHT22;54940;50.842;4.410;2023-06-26T09:55:40;28.90;86.10
68139;DHT22;54940;50.842;4.410;2023-06-26T09:58:10;29.10;82.50
68139;DHT22;54940;50.842;4.410;2023-06-26T10:00:43;29.10;83.20
68139;DHT22;54940;50.842;4.410;2023-06-26T10:03:10;29.20;81.60
68139;DHT22;54940;50.842;4.410;2023-06-26T10:05:37;29.60;83.20
68139;DHT22;54940;50.842;4.410;2023-06-26T10:08:06;29.80;82.90
68139;DHT22;54940;50.842;4.410;2023-06-26T10:10:34;30.00;82.70
68139;DHT22;54940;50.842;4.410;2023-06-26T10:13:04;29.90;83.50
68139;DHT22;54940;50.842;4.410;2023-06-26T10:15:33;29.70;80.20
68139;DHT22;54940;50.842;4.410;2023-06-26T10:18:00;29.30;80.20
68139;DHT22;54940;50.842;4.410;2023-06-26T10:20:26;29.40;84.00
68139;DHT22;54940;50.842;4.410;2023-06-26T10:22:55;29.50;81.00
68139;DHT22;54940;50.842;4.410;2023-06-26T10:25:25;29.80;80.60
68139;DHT22;54940;50.842;4.410;2023-06-26T10:27:58;30.10;83.90
68139;DHT22;54940;50.842;4.410;2023-06-26T10:30:27;30.50;80.20
68139;DHT22;54940;50.842;4.410;2023-06-26T10:32:55;29.90;75.80
68139;DHT22;54940;50.842;4.410;2023-06-26T10:35:21;29.10;74.60
68139;DHT22;54940;50.842;4.410;2023-06-26T10:37:51;29.10;81.30
68139;DHT22;54940;50.842;4.410;2023-06-26T10:40:26;29.50;80.70
68139;DHT22;54940;50.842;4.410;2023-06-26T10:43:06;29.50;79.10
68139;DHT22;54940;50.842;4.410;2023-06-26T10:45:34;29.60;78.40
68139;DHT22;54940;50.842;4.410;2023-06-26T10:48:00;29.70;80.70
68139;DHT22;54940;50.842;4.410;2023-06-26T10:50:30;30.00;78.40
68139;DHT22;54940;50.842;4.410;2023-06-26T10:55:35;30.70;77.20
68139;DHT22;54940;50.842;4.410;2023-06-26T10:58:01;30.10;75.90
68139;DHT22;54940;50.842;4.410;2023-06-26T11:00:28;30.20;77.70
68139;DHT22;54940;50.842;4.410;2023-06-26T11:02:53;30.50;76.70
68139;DHT22;54940;50.842;4.410;2023-06-26T11:05:26;29.80;73.80
68139;DHT22;54940;50.842;4.410;2023-06-26T11:08:09;29.30;78.10
68139;DHT22;54940;50.842;4.410;2023-06-26T11:10:49;29.40;75.60
68139;DHT22;54940;50.842;4.410;2023-06-26T11:13:18;29.30;75.30
68139;DHT22;54940;50.842;4.410;2023-06-26T11:15:45;29.50;74.40
68139;DHT22;54940;50.842;4.410;2023-06-26T11:18:12;29.90;81.10
68139;DHT22;54940;50.842;4.410;2023-06-26T11:20:38;30.40;78.90
68139;DHT22;54940;50.842;4.410;2023-06-26T11:23:08;29.90;76.90
68139;DHT22;54940;50.842;4.410;2023-06-26T11:25:37;30.00;75.50
68139;DHT22;54940;50.842;4.410;2023-06-26T11:28:09;30.00;76.40
68139;DHT22;54940;50.842;4.410;2023-06-26T11:30:35;29.70;78.00
68139;DHT22;54940;50.842;4.410;2023-06-26T11:33:08;29.70;75.80
68139;DHT22;54940;50.842;4.410;2023-06-26T11:35:34;29.50;75.90
68139;DHT22;54940;50.842;4.410;2023-06-26T11:38:01;29.50;75.90
68139;DHT22;54940;50.842;4.410;2023-06-26T11:40:34;29.30;77.80
68139;DHT22;54940;50.842;4.410;2023-06-26T11:43:01;29.80;79.00
68139;DHT22;54940;50.842;4.410;2023-06-26T11:45:33;29.80;78.30
68139;DHT22;54940;50.842;4.410;2023-06-26T11:48:00;29.80;76.80
68139;DHT22;54940;50.842;4.410;2023-06-26T11:50:26;29.90;74.90
68139;DHT22;54940;50.842;4.410;2023-06-26T11:52:58;30.10;73.80
68139;DHT22;54940;50.842;4.410;2023-06-26T11:55:25;30.20;73.80
68139;DHT22;54940;50.842;4.410;2023-06-26T11:57:56;30.40;74.20
68139;DHT22;54940;50.842;4.410;2023-06-26T12:00:25;30.10;70.50
68139;DHT22;54940;50.842;4.410;2023-06-26T12:02:50;29.80;71.80
68139;DHT22;54940;50.842;4.410;2023-06-26T12:05:19;29.80;76.30
68139;DHT22;54940;50.842;4.410;2023-06-26T12:07:47;30.20;71.10
68139;DHT22;54940;50.842;4.410;2023-06-26T12:10:14;30.50;76.50
68139;DHT22;54940;50.842;4.410;2023-06-26T12:12:41;30.50;71.20
68139;DHT22;54940;50.842;4.410;2023-06-26T12:15:07;30.70;71.50
68139;DHT22;54940;50.842;4.410;2023-06-26T12:17:37;30.90;71.90
68139;DHT22;54940;50.842;4.410;2023-06-26T12:20:04;30.40;69.30
68139;DHT22;54940;50.842;4.410;2023-06-26T12:22:34;30.60;66.20
68139;DHT22;54940;50.842;4.410;2023-06-26T12:25:01;30.50;69.70
68139;DHT22;54940;50.842;4.410;2023-06-26T12:27:27;30.40;70.30
68139;DHT22;54940;50.842;4.410;2023-06-26T12:29:54;30.40;69.80
68139;DHT22;54940;50.842;4.410;2023-06-26T12:32:22;30.40;69.50
68139;DHT22;54940;50.842;4.410;2023-06-26T12:34:51;30.10;68.80
68139;DHT22;54940;50.842;4.410;2023-06-26T12:37:19;30.00;71.60
68139;DHT22;54940;50.842;4.410;2023-06-26T12:39:56;30.10;69.80
68139;DHT22;54940;50.842;4.410;2023-06-26T12:42:24;30.30;70.10
68139;DHT22;54940;50.842;4.410;2023-06-26T12:44:53;30.50;65.80
68139;DHT22;54940;50.842;4.410;2023-06-26T12:47:26;30.40;70.10
68139;DHT22;54940;50.842;4.410;2023-06-26T12:49:53;30.40;68.30
68139;DHT22;54940;50.842;4.410;2023-06-26T12:52:19;30.10;69.80
68139;DHT22;54940;50.842;4.410;2023-06-26T12:54:45;29.80;70.70
68139;DHT22;54940;50.842;4.410;2023-06-26T12:57:13;30.00;70.20
68139;DHT22;54940;50.842;4.410;2023-06-26T12:59:42;30.60;73.00
68139;DHT22;54940;50.842;4.410;2023-06-26T13:02:08;30.30;70.00
68139;DHT22;54940;50.842;4.410;2023-06-26T13:04:34;30.10;69.80
68139;DHT22;54940;50.842;4.410;2023-06-26T13:07:01;30.10;71.20
68139;DHT22;54940;50.842;4.410;2023-06-26T13:09:31;30.00;70.00
68139;DHT22;54940;50.842;4.410;2023-06-26T13:11:59;30.40;69.50
68139;DHT22;54940;50.842;4.410;2023-06-26T13:14:24;30.60;70.50
68139;DHT22;54940;50.842;4.410;2023-06-26T13:16:50;30.70;68.90
68139;DHT22;54940;50.842;4.410;2023-06-26T13:19:15;30.10;68.20
68139;DHT22;54940;50.842;4.410;2023-06-26T13:21:41;30.00;68.70
68139;DHT22;54940;50.842;4.410;2023-06-26T13:24:07;29.70;69.70
68139;DHT22;54940;50.842;4.410;2023-06-26T13:26:33;29.50;72.00
68139;DHT22;54940;50.842;4.410;2023-06-26T13:28:59;29.80;71.40
68139;DHT22;54940;50.842;4.410;2023-06-26T13:31:25;29.90;73.10
68139;DHT22;54940;50.842;4.410;2023-06-26T13:33:50;30.40;69.00
68139;DHT22;54940;50.842;4.410;2023-06-26T13:36:19;30.30;70.60
68139;DHT22;54940;50.842;4.410;2023-06-26T13:38:46;30.40;66.10
68139;DHT22;54940;50.842;4.410;2023-06-26T13:41:13;30.50;69.40
68139;DHT22;54940;50.842;4.410;2023-06-26T13:43:39;30.50;69.50
68139;DHT22;54940;50.842;4.410;2023-06-26T13:46:05;30.50;68.50
68139;DHT22;54940;50.842;4.410;2023-06-26T13:48:31;31.20;67.70
68139;DHT22;54940;50.842;4.410;2023-06-26T13:50:58;31.20;69.10
68139;DHT22;54940;50.842;4.410;2023-06-26T13:53:26;31.40;69.70
68139;DHT22;54940;50.842;4.410;2023-06-26T13:55:52;31.00;71.50
68139;DHT22;54940;50.842;4.410;2023-06-26T13:58:17;30.60;67.10
68139;DHT22;54940;50.842;4.410;2023-06-26T14:00:44;30.90;70.60
68139;DHT22;54940;50.842;4.410;2023-06-26T14:03:12;30.70;65.70
68139;DHT22;54940;50.842;4.410;2023-06-26T14:05:40;30.30;68.40
68139;DHT22;54940;50.842;4.410;2023-06-26T14:08:07;29.80;67.30
68139;DHT22;54940;50.842;4.410;2023-06-26T14:10:33;29.50;69.50
68139;DHT22;54940;50.842;4.410;2023-06-26T14:13:00;30.10;67.10
68139;DHT22;54940;50.842;4.410;2023-06-26T14:15:25;30.50;67.50
68139;DHT22;54940;50.842;4.410;2023-06-26T14:17:51;30.60;66.00
68139;DHT22;54940;50.842;4.410;2023-06-26T14:20:17;30.50;66.70
68139;DHT22;54940;50.842;4.410;2023-06-26T14:22:46;30.20;65.70
68139;DHT22;54940;50.842;4.410;2023-06-26T14:25:12;29.70;64.70
68139;DHT22;54940;50.842;4.410;2023-06-26T14:27:38;29.60;67.30
68139;DHT22;54940;50.842;4.410;2023-06-26T14:30:04;29.60;65.60
68139;DHT22;54940;50.842;4.410;2023-06-26T14:32:30;29.80;66.40
68139;DHT22;54940;50.842;4.410;2023-06-26T14:34:56;29.90;67.10
68139;DHT22;54940;50.842;4.410;2023-06-26T14:37:22;30.30;67.20
68139;DHT22;54940;50.842;4.410;2023-06-26T14:39:49;30.30;67.00
68139;DHT22;54940;50.842;4.410;2023-06-26T14:42:17;30.30;68.90
68139;DHT22;54940;50.842;4.410;2023-06-26T14:44:43;29.90;67.70
68139;DHT22;54940;50.842;4.410;2023-06-26T14:47:12;29.30;67.90
68139;DHT22;54940;50.842;4.410;2023-06-26T14:49:40;29.20;67.50
68139;DHT22;54940;50.842;4.410;2023-06-26T14:52:06;28.90;68.80
68139;DHT22;54940;50.842;4.410;2023-06-26T14:54:34;28.70;69.30
68139;DHT22;54940;50.842;4.410;2023-06-26T14:57:02;28.80;69.50
68139;DHT22;54940;50.842;4.410;2023-06-26T14:59:28;28.20;70.60
68139;DHT22;54940;50.842;4.410;2023-06-26T15:01:54;28.10;70.70
68139;DHT22;54940;50.842;4.410;2023-06-26T15:04:19;27.60;72.00
68139;DHT22;54940;50.842;4.410;2023-06-26T15:06:47;27.20;72.60
68139;DHT22;54940;50.842;4.410;2023-06-26T15:09:13;26.70;73.40
68139;DHT22;54940;50.842;4.410;2023-06-26T15:11:39;26.50;75.60
68139;DHT22;54940;50.842;4.410;2023-06-26T15:14:04;26.50;75.60
68139;DHT22;54940;50.842;4.410;2023-06-26T15:16:30;26.80;77.50
68139;DHT22;54940;50.842;4.410;2023-06-26T15:18:56;26.80;74.70
68139;DHT22;54940;50.842;4.410;2023-06-26T15:21:21;26.80;72.60
68139;DHT22;54940;50.842;4.410;2023-06-26T15:23:47;26.70;73.00
68139;DHT22;54940;50.842;4.410;2023-06-26T15:26:13;26.50;74.10
68139;DHT22;54940;50.842;4.410;2023-06-26T15:28:41;26.30;76.60
68139;DHT22;54940;50.842;4.410;2023-06-26T15:31:07;26.50;75.20
68139;DHT22;54940;50.842;4.410;2023-06-26T15:33:33;26.50;76.10
68139;DHT22;54940;50.842;4.410;2023-06-26T15:35:59;26.30;77.60
68139;DHT22;54940;50.842;4.410;2023-06-26T15:38:24;26.50;75.90